^^
Station Historical Data
Daily Summary for July 26, 2017 Units:  Both    English   Metric
« Previous Day
Next Day »
Daily Weekly Monthly Yearly Custom
  High: Low: Average:
Temperature: 71.1 °F /  21.7 °C 43.7 °F /  6.5 °C 57.4 °F /  14.1 °C
Dew Point: 27.1 °F /  -2.7 °C 16.3 °F /  -8.7 °C 22.1 °F /  -5.5 °C
Humidity: 41% 17% 26%
Wind Speed: 11.0mph /  17.7km/h - 1.2mph /  1.9km/h
Wind Gust: 14.0mph /  22.5km/h - -
Wind- - ESE
Pressure: 30.39 in /  1029 hPa 30.10 in /  1019.2 hPa -
Precipitation: 0.00 in /  0 mm    
Historical Graphs
 
 
Tabular Data for July 26, 2017
Time Temperature Dew Point Pressure Wind Wind Speed Wind Gust Humidity Rainfall Rate (Hourly) solar Conditions
00:03 58.6 °F /  14.8 °C 18.9 °F /  -7.3 °C 30.12in /  1019.9hPa SSW 2.0mph /  3.2km/h 9.0mph /  14.5km/h 21% 0.00in /  0mm 0.0 W/m2
00:09 58.5 °F /  14.7 °C 18.7 °F /  -7.4 °C 30.12in /  1019.9hPa Calm   13.0mph /  20.9km/h 21% 0.00in /  0mm 0.0 W/m2
00:15 58.3 °F /  14.6 °C 19.6 °F /  -6.9 °C 30.11in /  1019.5hPa WSW 0.9mph /  1.4km/h 8.0mph /  12.9km/h 22% 0.00in /  0mm 0.0 W/m2
00:21 57.7 °F /  14.3 °C 19.2 °F /  -7.1 °C 30.12in /  1019.9hPa Calm   4.0mph /  6.4km/h 22% 0.00in /  0mm 0.0 W/m2
00:27 57.0 °F /  13.9 °C 18.5 °F /  -7.5 °C 30.12in /  1019.9hPa South 4.0mph /  6.4km/h 8.0mph /  12.9km/h 22% 0.00in /  0mm 0.0 W/m2
00:33 56.7 °F /  13.7 °C 18.3 °F /  -7.6 °C 30.12in /  1019.9hPa Calm   8.0mph /  12.9km/h 22% 0.00in /  0mm 0.0 W/m2
00:39 56.7 °F /  13.7 °C 18.3 °F /  -7.6 °C 30.12in /  1019.9hPa SW 2.0mph /  3.2km/h 5.0mph /  8km/h 22% 0.00in /  0mm 0.0 W/m2
00:46 56.5 °F /  13.6 °C 18.1 °F /  -7.7 °C 30.12in /  1019.9hPa SE 4.9mph /  7.9km/h 14.0mph /  22.5km/h 22% 0.00in /  0mm 0.0 W/m2
00:52 56.1 °F /  13.4 °C 18.9 °F /  -7.3 °C 30.12in /  1019.9hPa Calm   5.0mph /  8km/h 23% 0.00in /  0mm 0.0 W/m2
00:58 55.8 °F /  13.2 °C 18.5 °F /  -7.5 °C 30.12in /  1019.9hPa SE 4.9mph /  7.9km/h 12.0mph /  19.3km/h 23% 0.00in /  0mm 0.0 W/m2
01:04 55.2 °F /  12.9 °C 18.1 °F /  -7.7 °C 30.12in /  1019.9hPa Calm   10.0mph /  16.1km/h 23% 0.00in /  0mm 0.0 W/m2
01:10 54.7 °F /  12.6 °C 18.5 °F /  -7.5 °C 30.12in /  1019.9hPa SE 6.0mph /  9.7km/h 11.0mph /  17.7km/h 24% 0.00in /  0mm 0.0 W/m2
01:16 54.0 °F /  12.2 °C 18.0 °F /  -7.8 °C 30.11in /  1019.5hPa SSE 8.1mph /  13km/h 9.0mph /  14.5km/h 24% 0.00in /  0mm 0.0 W/m2
01:22 53.6 °F /  12 °C 18.7 °F /  -7.4 °C 30.11in /  1019.5hPa Calm   6.0mph /  9.7km/h 25% 0.00in /  0mm 0.0 W/m2
01:29 53.1 °F /  11.7 °C 18.1 °F /  -7.7 °C 30.12in /  1019.9hPa SE 11.0mph /  17.7km/h 11.0mph /  17.7km/h 25% 0.00in /  0mm 0.0 W/m2
01:35 52.9 °F /  11.6 °C 18.9 °F /  -7.3 °C 30.11in /  1019.5hPa SE 10.1mph /  16.3km/h 13.0mph /  20.9km/h 26% 0.00in /  0mm 0.0 W/m2
01:41 52.3 °F /  11.3 °C 18.5 °F /  -7.5 °C 30.11in /  1019.5hPa Calm   4.0mph /  6.4km/h 26% 0.00in /  0mm 0.0 W/m2
01:47 52.0 °F /  11.1 °C 18.1 °F /  -7.7 °C 30.12in /  1019.9hPa Calm   6.0mph /  9.7km/h 26% 0.00in /  0mm 0.0 W/m2
01:53 51.6 °F /  10.9 °C 18.7 °F /  -7.4 °C 30.11in /  1019.5hPa East 0.9mph /  1.4km/h 7.0mph /  11.3km/h 27% 0.00in /  0mm 0.0 W/m2
01:59 51.4 °F /  10.8 °C 18.5 °F /  -7.5 °C 30.11in /  1019.5hPa Calm     27% 0.00in /  0mm 0.0 W/m2
02:06 51.1 °F /  10.6 °C 18.3 °F /  -7.6 °C 30.11in /  1019.5hPa Calm   1.0mph /  1.6km/h 27% 0.00in /  0mm 0.0 W/m2
02:12 50.7 °F /  10.4 °C 18.0 °F /  -7.8 °C 30.11in /  1019.5hPa Calm     27% 0.00in /  0mm 0.0 W/m2
02:18 50.5 °F /  10.3 °C 18.7 °F /  -7.4 °C 30.11in /  1019.5hPa Calm     28% 0.00in /  0mm 0.0 W/m2
02:24 50.2 °F /  10.1 °C 18.3 °F /  -7.6 °C 30.10in /  1019.2hPa Calm     28% 0.00in /  0mm 0.0 W/m2
02:30 49.8 °F /  9.9 °C 18.0 °F /  -7.8 °C 30.11in /  1019.5hPa Calm     28% 0.00in /  0mm 0.0 W/m2
02:36 49.5 °F /  9.7 °C 18.5 °F /  -7.5 °C 30.11in /  1019.5hPa Calm     29% 0.00in /  0mm 0.0 W/m2
02:42 49.1 °F /  9.5 °C 19.0 °F /  -7.2 °C 30.10in /  1019.2hPa SE 0.9mph /  1.4km/h 1.0mph /  1.6km/h 30% 0.00in /  0mm 0.0 W/m2
02:49 48.7 °F /  9.3 °C 18.0 °F /  -7.8 °C 30.10in /  1019.2hPa Calm     29% 0.00in /  0mm 0.0 W/m2
02:55 48.4 °F /  9.1 °C 18.3 °F /  -7.6 °C 30.10in /  1019.2hPa Calm     30% 0.00in /  0mm 0.0 W/m2
03:01 48.0 °F /  8.9 °C 18.1 °F /  -7.7 °C 30.10in /  1019.2hPa Calm     30% 0.00in /  0mm 0.0 W/m2
03:07 48.0 °F /  8.9 °C 17.2 °F /  -8.2 °C 30.32in /  1026.6hPa Calm     29% 0.00in /  0mm 0.0 W/m2
03:13 48.4 °F /  9.1 °C 17.6 °F /  -8 °C 30.32in /  1026.6hPa Calm     29% 0.00in /  0mm 0.0 W/m2
03:19 48.6 °F /  9.2 °C 17.8 °F /  -7.9 °C 30.32in /  1026.6hPa Calm     29% 0.00in /  0mm 0.0 W/m2
03:26 48.6 °F /  9.2 °C 17.8 °F /  -7.9 °C 30.31in /  1026.3hPa Calm     29% 0.00in /  0mm 0.0 W/m2
03:32 48.4 °F /  9.1 °C 17.6 °F /  -8 °C 30.31in /  1026.3hPa Calm     29% 0.00in /  0mm 0.0 W/m2
03:38 48.0 °F /  8.9 °C 18.1 °F /  -7.7 °C 30.31in /  1026.3hPa Calm     30% 0.00in /  0mm 0.0 W/m2
03:44 47.8 °F /  8.8 °C 17.1 °F /  -8.3 °C 30.32in /  1026.6hPa Calm     29% 0.00in /  0mm 0.0 W/m2
03:50 47.7 °F /  8.7 °C 16.9 °F /  -8.4 °C 30.32in /  1026.6hPa Calm     29% 0.00in /  0mm 0.0 W/m2
03:56 47.7 °F /  8.7 °C 16.9 °F /  -8.4 °C 30.31in /  1026.3hPa Calm     29% 0.00in /  0mm 0.0 W/m2
04:02 47.8 °F /  8.8 °C 16.3 °F /  -8.7 °C 30.31in /  1026.3hPa Calm     28% 0.00in /  0mm 0.0 W/m2
04:09 47.8 °F /  8.8 °C 17.1 °F /  -8.3 °C 30.31in /  1026.3hPa Calm     29% 0.00in /  0mm 0.0 W/m2
04:15 47.8 °F /  8.8 °C 16.3 °F /  -8.7 °C 30.31in /  1026.3hPa Calm     28% 0.00in /  0mm 0.0 W/m2
04:21 47.7 °F /  8.7 °C 16.9 °F /  -8.4 °C 30.32in /  1026.6hPa Calm     29% 0.00in /  0mm 0.0 W/m2
04:27 47.5 °F /  8.6 °C 16.9 °F /  -8.4 °C 30.32in /  1026.6hPa Calm     29% 0.00in /  0mm 0.0 W/m2
04:33 47.7 °F /  8.7 °C 16.9 °F /  -8.4 °C 30.31in /  1026.3hPa Calm     29% 0.00in /  0mm 0.0 W/m2
04:39 48.0 °F /  8.9 °C 17.2 °F /  -8.2 °C 30.31in /  1026.3hPa Calm     29% 0.00in /  0mm 0.0 W/m2
04:45 48.9 °F /  9.4 °C 18.0 °F /  -7.8 °C 30.32in /  1026.6hPa NW 0.9mph /  1.4km/h 1.0mph /  1.6km/h 29% 0.00in /  0mm 0.0 W/m2
04:51 50.2 °F /  10.1 °C 19.9 °F /  -6.7 °C 30.32in /  1026.6hPa South 2.9mph /  4.7km/h 6.0mph /  9.7km/h 30% 0.00in /  0mm 0.0 W/m2
04:58 51.1 °F /  10.6 °C 19.9 °F /  -6.7 °C 30.32in /  1026.6hPa ESE 2.9mph /  4.7km/h 3.0mph /  4.8km/h 29% 0.00in /  0mm 0.0 W/m2
05:04 51.6 °F /  10.9 °C 20.3 °F /  -6.5 °C 30.32in /  1026.6hPa Calm   5.0mph /  8km/h 29% 0.00in /  0mm 0.0 W/m2
05:10 51.6 °F /  10.9 °C 19.6 °F /  -6.9 °C 30.32in /  1026.6hPa Calm   4.0mph /  6.4km/h 28% 0.00in /  0mm 0.0 W/m2
05:16 51.6 °F /  10.9 °C 19.6 °F /  -6.9 °C 30.32in /  1026.6hPa SSE 2.0mph /  3.2km/h 6.0mph /  9.7km/h 28% 0.00in /  0mm 0.0 W/m2
05:22 51.4 °F /  10.8 °C 20.3 °F /  -6.5 °C 30.32in /  1026.6hPa Calm     29% 0.00in /  0mm 0.0 W/m2
05:28 51.1 °F /  10.6 °C 20.7 °F /  -6.3 °C 30.32in /  1026.6hPa Calm     30% 0.00in /  0mm 0.0 W/m2
05:34 50.4 °F /  10.2 °C 20.8 °F /  -6.2 °C 30.33in /  1027hPa Calm     31% 0.00in /  0mm 0.0 W/m2
05:41 49.6 °F /  9.8 °C 20.3 °F /  -6.5 °C 30.32in /  1026.6hPa Calm     31% 0.00in /  0mm 0.0 W/m2
05:47 48.9 °F /  9.4 °C 20.3 °F /  -6.5 °C 30.33in /  1027hPa Calm     32% 0.00in /  0mm 0.0 W/m2
05:53 48.4 °F /  9.1 °C 20.7 °F /  -6.3 °C 30.33in /  1027hPa Calm     33% 0.00in /  0mm 0.0 W/m2
05:59 47.7 °F /  8.7 °C 20.7 °F /  -6.3 °C 30.33in /  1027hPa Calm     34% 0.00in /  0mm 0.0 W/m2
06:05 47.1 °F /  8.4 °C 20.8 °F /  -6.2 °C 30.34in /  1027.3hPa Calm     35% 0.00in /  0mm 0.0 W/m2
06:11 46.6 °F /  8.1 °C 21.0 °F /  -6.1 °C 30.34in /  1027.3hPa Calm     36% 0.00in /  0mm 0.0 W/m2
06:17 46.0 °F /  7.8 °C 20.5 °F /  -6.4 °C 30.34in /  1027.3hPa Calm     36% 0.00in /  0mm 0.0 W/m2
06:24 45.7 °F /  7.6 °C 20.8 °F /  -6.2 °C 30.34in /  1027.3hPa Calm     37% 0.00in /  0mm 0.0 W/m2
06:30 45.1 °F /  7.3 °C 20.5 °F /  -6.4 °C 30.34in /  1027.3hPa Calm     37% 0.00in /  0mm 0.0 W/m2
06:36 44.8 °F /  7.1 °C 20.1 °F /  -6.6 °C 30.34in /  1027.3hPa Calm     37% 0.00in /  0mm 7.0 W/m2
06:42 44.4 °F /  6.9 °C 19.8 °F /  -6.8 °C 30.35in /  1027.7hPa Calm     37% 0.00in /  0mm 11.0 W/m2
06:48 44.2 °F /  6.8 °C 20.3 °F /  -6.5 °C 30.35in /  1027.7hPa Calm     38% 0.00in /  0mm 12.0 W/m2
06:54 44.1 °F /  6.7 °C 20.1 °F /  -6.6 °C 30.35in /  1027.7hPa Calm     38% 0.00in /  0mm 14.0 W/m2
07:00 43.9 °F /  6.6 °C 19.2 °F /  -7.1 °C 30.35in /  1027.7hPa Calm     37% 0.00in /  0mm 18.0 W/m2
07:07 43.7 °F /  6.5 °C 19.0 °F /  -7.2 °C 30.36in /  1028hPa Calm     37% 0.00in /  0mm 19.0 W/m2
07:13 43.9 °F /  6.6 °C 19.9 °F /  -6.7 °C 30.36in /  1028hPa Calm     38% 0.00in /  0mm 21.0 W/m2
07:19 44.4 °F /  6.9 °C 19.0 °F /  -7.2 °C 30.36in /  1028hPa Calm     36% 0.00in /  0mm 23.0 W/m2
07:25 45.3 °F /  7.4 °C 19.2 °F /  -7.1 °C 30.36in /  1028hPa Calm     35% 0.00in /  0mm 25.0 W/m2
07:31 45.9 °F /  7.7 °C 19.8 °F /  -6.8 °C 30.36in /  1028hPa Calm     35% 0.00in /  0mm 26.0 W/m2
07:37 46.2 °F /  7.9 °C 19.4 °F /  -7 °C 30.36in /  1028hPa Calm     34% 0.00in /  0mm 28.0 W/m2
07:43 46.8 °F /  8.2 °C 19.2 °F /  -7.1 °C 30.36in /  1028hPa Calm     33% 0.00in /  0mm 30.0 W/m2
07:50 47.5 °F /  8.6 °C 19.8 °F /  -6.8 °C 30.36in /  1028hPa Calm   1.0mph /  1.6km/h 33% 0.00in /  0mm 32.0 W/m2
07:56 48.4 °F /  9.1 °C 19.9 °F /  -6.7 °C 30.37in /  1028.3hPa Calm   3.0mph /  4.8km/h 32% 0.00in /  0mm 32.0 W/m2
08:02 49.3 °F /  9.6 °C 19.9 °F /  -6.7 °C 30.37in /  1028.3hPa Calm     31% 0.00in /  0mm 33.0 W/m2
08:08 50.2 °F /  10.1 °C 20.7 °F /  -6.3 °C 30.37in /  1028.3hPa Calm     31% 0.00in /  0mm 35.0 W/m2
08:14 51.1 °F /  10.6 °C 20.7 °F /  -6.3 °C 30.37in /  1028.3hPa Calm     30% 0.00in /  0mm 39.0 W/m2
08:20 52.3 °F /  11.3 °C 21.0 °F /  -6.1 °C 30.38in /  1028.7hPa Calm   1.0mph /  1.6km/h 29% 0.00in /  0mm 345.0 W/m2
08:27 54.0 °F /  12.2 °C 21.6 °F /  -5.8 °C 30.38in /  1028.7hPa Calm     28% 0.00in /  0mm 364.0 W/m2
08:33 54.9 °F /  12.7 °C 21.6 °F /  -5.8 °C 30.38in /  1028.7hPa Calm   1.0mph /  1.6km/h 27% 0.00in /  0mm 385.0 W/m2
08:39 55.8 °F /  13.2 °C 23.2 °F /  -4.9 °C 30.38in /  1028.7hPa Calm   3.0mph /  4.8km/h 28% 0.00in /  0mm 404.0 W/m2
08:45 57.6 °F /  14.2 °C 21.9 °F /  -5.6 °C 30.38in /  1028.7hPa Calm   2.0mph /  3.2km/h 25% 0.00in /  0mm 424.0 W/m2
08:51 59.0 °F /  15 °C 22.3 °F /  -5.4 °C 30.38in /  1028.7hPa NNE 2.0mph /  3.2km/h 4.0mph /  6.4km/h 24% 0.00in /  0mm 443.0 W/m2
08:57 60.1 °F /  15.6 °C 23.2 °F /  -4.9 °C 30.38in /  1028.7hPa ENE 2.0mph /  3.2km/h 4.0mph /  6.4km/h 24% 0.00in /  0mm 461.0 W/m2
09:03 61.0 °F /  16.1 °C 22.8 °F /  -5.1 °C 30.38in /  1028.7hPa NE 6.0mph /  9.7km/h 6.0mph /  9.7km/h 23% 0.00in /  0mm 482.0 W/m2
09:09 61.5 °F /  16.4 °C 23.4 °F /  -4.8 °C 30.38in /  1028.7hPa ENE 2.9mph /  4.7km/h 7.0mph /  11.3km/h 23% 0.00in /  0mm 497.0 W/m2
09:15 61.9 °F /  16.6 °C 23.7 °F /  -4.6 °C 30.38in /  1028.7hPa Calm   4.0mph /  6.4km/h 23% 0.00in /  0mm 515.0 W/m2
09:22 62.2 °F /  16.8 °C 23.0 °F /  -5 °C 30.38in /  1028.7hPa Calm   5.0mph /  8km/h 22% 0.00in /  0mm 529.0 W/m2
09:28 63.0 °F /  17.2 °C 23.5 °F /  -4.7 °C 30.38in /  1028.7hPa ENE 6.0mph /  9.7km/h 7.0mph /  11.3km/h 22% 0.00in /  0mm 545.0 W/m2
09:32 63.1 °F /  17.3 °C 23.7 °F /  -4.6 °C 30.38in /  1028.7hPa Calm   5.0mph /  8km/h 22% 0.00in /  0mm 554.0 W/m2
09:38 63.7 °F /  17.6 °C 24.1 °F /  -4.4 °C 30.38in /  1028.7hPa NE 2.0mph /  3.2km/h 5.0mph /  8km/h 22% 0.00in /  0mm 570.0 W/m2
09:44 64.0 °F /  17.8 °C 23.4 °F /  -4.8 °C 30.38in /  1028.7hPa ENE 2.9mph /  4.7km/h 6.0mph /  9.7km/h 21% 0.00in /  0mm 585.0 W/m2
09:50 64.8 °F /  18.2 °C 23.9 °F /  -4.5 °C 30.38in /  1028.7hPa ESE 6.0mph /  9.7km/h 11.0mph /  17.7km/h 21% 0.00in /  0mm 599.0 W/m2
09:56 64.8 °F /  18.2 °C 23.9 °F /  -4.5 °C 30.38in /  1028.7hPa ENE 8.1mph /  13km/h 8.1mph /  13km/h 21% 0.00in /  0mm 612.0 W/m2
10:03 64.6 °F /  18.1 °C 23.7 °F /  -4.6 °C 30.38in /  1028.7hPa ESE 4.0mph /  6.4km/h 7.0mph /  11.3km/h 21% 0.00in /  0mm 622.0 W/m2
10:09 64.8 °F /  18.2 °C 23.9 °F /  -4.5 °C 30.38in /  1028.7hPa East 2.9mph /  4.7km/h 4.0mph /  6.4km/h 21% 0.00in /  0mm 635.0 W/m2
10:15 65.3 °F /  18.5 °C 24.4 °F /  -4.2 °C 30.38in /  1028.7hPa East 2.9mph /  4.7km/h 6.0mph /  9.7km/h 21% 0.00in /  0mm 649.0 W/m2
10:21 65.7 °F /  18.7 °C 25.7 °F /  -3.5 °C 30.38in /  1028.7hPa Calm   1.0mph /  1.6km/h 22% 0.00in /  0mm 657.0 W/m2
10:27 65.8 °F /  18.8 °C 23.7 °F /  -4.6 °C 30.38in /  1028.7hPa East 2.9mph /  4.7km/h 5.0mph /  8km/h 20% 0.00in /  0mm 668.0 W/m2
10:33 66.0 °F /  18.9 °C 25.0 °F /  -3.9 °C 30.38in /  1028.7hPa Calm   5.0mph /  8km/h 21% 0.00in /  0mm 677.0 W/m2
10:39 66.4 °F /  19.1 °C 25.3 °F /  -3.7 °C 30.38in /  1028.7hPa Calm   3.0mph /  4.8km/h 21% 0.00in /  0mm 686.0 W/m2
10:45 66.4 °F /  19.1 °C 25.3 °F /  -3.7 °C 30.37in /  1028.3hPa East 6.0mph /  9.7km/h 8.0mph /  12.9km/h 21% 0.00in /  0mm 693.0 W/m2
10:52 66.4 °F /  19.1 °C 25.3 °F /  -3.7 °C 30.37in /  1028.3hPa East 4.0mph /  6.4km/h 4.0mph /  6.4km/h 21% 0.00in /  0mm 700.0 W/m2
10:58 66.9 °F /  19.4 °C 24.6 °F /  -4.1 °C 30.37in /  1028.3hPa Calm   9.0mph /  14.5km/h 20% 0.00in /  0mm 707.0 W/m2
11:04 67.5 °F /  19.7 °C 25.0 °F /  -3.9 °C 30.37in /  1028.3hPa ENE 2.0mph /  3.2km/h 8.0mph /  12.9km/h 20% 0.00in /  0mm 714.0 W/m2
11:10 67.5 °F /  19.7 °C 25.0 °F /  -3.9 °C 30.37in /  1028.3hPa East 2.9mph /  4.7km/h 6.0mph /  9.7km/h 20% 0.00in /  0mm 719.0 W/m2
11:16 67.8 °F /  19.9 °C 25.3 °F /  -3.7 °C 30.37in /  1028.3hPa NNE 2.0mph /  3.2km/h 4.0mph /  6.4km/h 20% 0.00in /  0mm 722.0 W/m2
11:22 68.2 °F /  20.1 °C 25.5 °F /  -3.6 °C 30.37in /  1028.3hPa NE 6.0mph /  9.7km/h 8.0mph /  12.9km/h 20% 0.00in /  0mm 724.0 W/m2
11:28 68.4 °F /  20.2 °C 25.7 °F /  -3.5 °C 30.37in /  1028.3hPa ESE 2.0mph /  3.2km/h 6.0mph /  9.7km/h 20% 0.00in /  0mm 728.0 W/m2
11:34 68.5 °F /  20.3 °C 27.1 °F /  -2.7 °C 30.37in /  1028.3hPa ENE 6.9mph /  11.1km/h 7.0mph /  11.3km/h 21% 0.00in /  0mm 729.0 W/m2
11:40 68.7 °F /  20.4 °C 26.1 °F /  -3.3 °C 30.36in /  1028hPa ESE 4.0mph /  6.4km/h 9.0mph /  14.5km/h 20% 0.00in /  0mm 733.0 W/m2
11:47 68.9 °F /  20.5 °C 26.2 °F /  -3.2 °C 30.36in /  1028hPa East 2.0mph /  3.2km/h 8.0mph /  12.9km/h 20% 0.00in /  0mm 735.0 W/m2
11:53 69.3 °F /  20.7 °C 26.4 °F /  -3.1 °C 30.36in /  1028hPa Calm   5.0mph /  8km/h 20% 0.00in /  0mm 733.0 W/m2
11:59 69.6 °F /  20.9 °C 25.5 °F /  -3.6 °C 30.36in /  1028hPa Calm   7.0mph /  11.3km/h 19% 0.00in /  0mm 735.0 W/m2
12:05 69.8 °F /  21 °C 25.7 °F /  -3.5 °C 30.36in /  1028hPa Calm   7.0mph /  11.3km/h 19% 0.00in /  0mm 731.0 W/m2
12:11 70.0 °F /  21.1 °C 25.9 °F /  -3.4 °C 30.35in /  1027.7hPa North 2.0mph /  3.2km/h 2.0mph /  3.2km/h 19% 0.00in /  0mm 729.0 W/m2
12:17 70.3 °F /  21.3 °C 26.1 °F /  -3.3 °C 30.34in /  1027.3hPa ESE 8.9mph /  14.3km/h 9.0mph /  14.5km/h 19% 0.00in /  0mm 729.0 W/m2
12:23 70.3 °F /  21.3 °C 26.1 °F /  -3.3 °C 30.33in /  1027hPa ENE 2.0mph /  3.2km/h 7.0mph /  11.3km/h 19% 0.00in /  0mm 728.0 W/m2
12:30 70.3 °F /  21.3 °C 26.1 °F /  -3.3 °C 30.33in /  1027hPa Calm   4.0mph /  6.4km/h 19% 0.00in /  0mm 721.0 W/m2
12:36 70.2 °F /  21.2 °C 26.1 °F /  -3.3 °C 30.33in /  1027hPa ENE 2.9mph /  4.7km/h 8.0mph /  12.9km/h 19% 0.00in /  0mm 717.0 W/m2
12:42 70.2 °F /  21.2 °C 26.1 °F /  -3.3 °C 30.33in /  1027hPa Calm   6.0mph /  9.7km/h 19% 0.00in /  0mm 708.0 W/m2
12:48 70.2 °F /  21.2 °C 26.1 °F /  -3.3 °C 30.33in /  1027hPa NNE 0.9mph /  1.4km/h 7.0mph /  11.3km/h 19% 0.00in /  0mm 707.0 W/m2
12:54 70.3 °F /  21.3 °C 26.1 °F /  -3.3 °C 30.33in /  1027hPa East 0.9mph /  1.4km/h 3.0mph /  4.8km/h 19% 0.00in /  0mm 698.0 W/m2
13:00 70.5 °F /  21.4 °C 26.2 °F /  -3.2 °C 30.33in /  1027hPa ESE 0.9mph /  1.4km/h 6.0mph /  9.7km/h 19% 0.00in /  0mm 689.0 W/m2
13:06 70.7 °F /  21.5 °C 26.4 °F /  -3.1 °C 30.33in /  1027hPa SE 4.9mph /  7.9km/h 6.0mph /  9.7km/h 19% 0.00in /  0mm 684.0 W/m2
13:12 70.5 °F /  21.4 °C 26.2 °F /  -3.2 °C 30.32in /  1026.6hPa SE 2.9mph /  4.7km/h 7.0mph /  11.3km/h 19% 0.00in /  0mm 677.0 W/m2
13:18 70.5 °F /  21.4 °C 26.2 °F /  -3.2 °C 30.32in /  1026.6hPa Calm   4.0mph /  6.4km/h 19% 0.00in /  0mm 666.0 W/m2
13:25 70.5 °F /  21.4 °C 26.2 °F /  -3.2 °C 30.31in /  1026.3hPa Calm   5.0mph /  8km/h 19% 0.00in /  0mm 656.0 W/m2
13:31 70.3 °F /  21.3 °C 26.1 °F /  -3.3 °C 30.31in /  1026.3hPa South 4.0mph /  6.4km/h 4.0mph /  6.4km/h 19% 0.00in /  0mm 647.0 W/m2
13:37 70.3 °F /  21.3 °C 26.1 °F /  -3.3 °C 30.32in /  1026.6hPa East 8.1mph /  13km/h 9.0mph /  14.5km/h 19% 0.00in /  0mm 635.0 W/m2
13:43 70.5 °F /  21.4 °C 25.0 °F /  -3.9 °C 30.32in /  1026.6hPa Calm   4.0mph /  6.4km/h 18% 0.00in /  0mm 624.0 W/m2
13:49 70.7 °F /  21.5 °C 25.2 °F /  -3.8 °C 30.31in /  1026.3hPa ENE 6.0mph /  9.7km/h 6.0mph /  9.7km/h 18% 0.00in /  0mm 610.0 W/m2
13:55 70.5 °F /  21.4 °C 25.0 °F /  -3.9 °C 30.31in /  1026.3hPa NNE 6.0mph /  9.7km/h 8.0mph /  12.9km/h 18% 0.00in /  0mm 596.0 W/m2
14:01 70.9 °F /  21.6 °C 25.3 °F /  -3.7 °C 30.31in /  1026.3hPa NE 4.0mph /  6.4km/h 10.0mph /  16.1km/h 18% 0.00in /  0mm 585.0 W/m2
14:07 70.7 °F /  21.5 °C 25.2 °F /  -3.8 °C 30.31in /  1026.3hPa NE 4.9mph /  7.9km/h 5.0mph /  8km/h 18% 0.00in /  0mm 571.0 W/m2
14:14 70.7 °F /  21.5 °C 25.2 °F /  -3.8 °C 30.31in /  1026.3hPa NNW 0.9mph /  1.4km/h 2.0mph /  3.2km/h 18% 0.00in /  0mm 559.0 W/m2
14:20 70.7 °F /  21.5 °C 25.2 °F /  -3.8 °C 30.31in /  1026.3hPa NNW 4.9mph /  7.9km/h 7.0mph /  11.3km/h 18% 0.00in /  0mm 543.0 W/m2
14:26 70.5 °F /  21.4 °C 25.0 °F /  -3.9 °C 30.31in /  1026.3hPa ENE 0.9mph /  1.4km/h 6.0mph /  9.7km/h 18% 0.00in /  0mm 526.0 W/m2
14:32 70.9 °F /  21.6 °C 25.3 °F /  -3.7 °C 30.31in /  1026.3hPa ESE 4.9mph /  7.9km/h 5.0mph /  8km/h 18% 0.00in /  0mm 508.0 W/m2
14:38 71.1 °F /  21.7 °C 25.3 °F /  -3.7 °C 30.31in /  1026.3hPa Calm   4.0mph /  6.4km/h 18% 0.00in /  0mm 494.0 W/m2
14:44 70.9 °F /  21.6 °C 25.3 °F /  -3.7 °C 30.31in /  1026.3hPa ESE 2.0mph /  3.2km/h 4.0mph /  6.4km/h 18% 0.00in /  0mm 475.0 W/m2
14:50 70.9 °F /  21.6 °C 25.3 °F /  -3.7 °C 30.31in /  1026.3hPa NNE 4.0mph /  6.4km/h 4.0mph /  6.4km/h 18% 0.00in /  0mm 455.0 W/m2
14:57 70.7 °F /  21.5 °C 25.2 °F /  -3.8 °C 30.31in /  1026.3hPa SE 2.9mph /  4.7km/h 4.0mph /  6.4km/h 18% 0.00in /  0mm 443.0 W/m2
15:03 70.9 °F /  21.6 °C 25.3 °F /  -3.7 °C 30.31in /  1026.3hPa NE 4.0mph /  6.4km/h 6.0mph /  9.7km/h 18% 0.00in /  0mm 422.0 W/m2
15:09 70.9 °F /  21.6 °C 23.9 °F /  -4.5 °C 30.31in /  1026.3hPa NNE 2.0mph /  3.2km/h 8.0mph /  12.9km/h 17% 0.00in /  0mm 404.0 W/m2
15:15 70.5 °F /  21.4 °C 25.0 °F /  -3.9 °C 30.31in /  1026.3hPa Calm   5.0mph /  8km/h 18% 0.00in /  0mm 385.0 W/m2
15:21 70.3 °F /  21.3 °C 24.8 °F /  -4 °C 30.31in /  1026.3hPa Calm     18% 0.00in /  0mm 369.0 W/m2
15:27 70.0 °F /  21.1 °C 23.2 °F /  -4.9 °C 30.31in /  1026.3hPa Calm   6.0mph /  9.7km/h 17% 0.00in /  0mm 350.0 W/m2
15:33 69.8 °F /  21 °C 24.4 °F /  -4.2 °C 30.31in /  1026.3hPa NNE 2.9mph /  4.7km/h 8.0mph /  12.9km/h 18% 0.00in /  0mm 330.0 W/m2
15:39 69.6 °F /  20.9 °C 24.3 °F /  -4.3 °C 30.31in /  1026.3hPa East 2.9mph /  4.7km/h 9.0mph /  14.5km/h 18% 0.00in /  0mm 308.0 W/m2
15:45 69.3 °F /  20.7 °C 23.9 °F /  -4.5 °C 30.31in /  1026.3hPa Calm   3.0mph /  4.8km/h 18% 0.00in /  0mm 51.0 W/m2
15:52 68.9 °F /  20.5 °C 23.7 °F /  -4.6 °C 30.31in /  1026.3hPa North 2.9mph /  4.7km/h 7.0mph /  11.3km/h 18% 0.00in /  0mm 46.0 W/m2
15:58 68.5 °F /  20.3 °C 23.4 °F /  -4.8 °C 30.31in /  1026.3hPa Calm   5.0mph /  8km/h 18% 0.00in /  0mm 44.0 W/m2
16:04 68.4 °F /  20.2 °C 23.2 °F /  -4.9 °C 30.31in /  1026.3hPa East 0.9mph /  1.4km/h 5.0mph /  8km/h 18% 0.00in /  0mm 40.0 W/m2
16:10 68.0 °F /  20 °C 24.3 °F /  -4.3 °C 30.31in /  1026.3hPa Calm   3.0mph /  4.8km/h 19% 0.00in /  0mm 39.0 W/m2
16:16 67.6 °F /  19.8 °C 23.9 °F /  -4.5 °C 30.31in /  1026.3hPa NE 4.9mph /  7.9km/h 6.0mph /  9.7km/h 19% 0.00in /  0mm 35.0 W/m2
16:22 67.5 °F /  19.7 °C 23.7 °F /  -4.6 °C 30.32in /  1026.6hPa NE 2.0mph /  3.2km/h 4.0mph /  6.4km/h 19% 0.00in /  0mm 42.0 W/m2
16:28 67.1 °F /  19.5 °C 23.5 °F /  -4.7 °C 30.32in /  1026.6hPa NE 4.0mph /  6.4km/h 5.0mph /  8km/h 19% 0.00in /  0mm 32.0 W/m2
16:35 66.7 °F /  19.3 °C 24.4 °F /  -4.2 °C 30.32in /  1026.6hPa NE 4.0mph /  6.4km/h 5.0mph /  8km/h 20% 0.00in /  0mm 39.0 W/m2
16:41 66.6 °F /  19.2 °C 24.3 °F /  -4.3 °C 30.32in /  1026.6hPa ENE 0.9mph /  1.4km/h 4.0mph /  6.4km/h 20% 0.00in /  0mm 23.0 W/m2
16:47 66.4 °F /  19.1 °C 24.1 °F /  -4.4 °C 30.32in /  1026.6hPa SSE 0.9mph /  1.4km/h 2.0mph /  3.2km/h 20% 0.00in /  0mm 21.0 W/m2
16:53 66.0 °F /  18.9 °C 23.7 °F /  -4.6 °C 30.32in /  1026.6hPa NNE 2.0mph /  3.2km/h 6.0mph /  9.7km/h 20% 0.00in /  0mm 21.0 W/m2
16:59 65.7 °F /  18.7 °C 23.5 °F /  -4.7 °C 30.32in /  1026.6hPa Calm   7.0mph /  11.3km/h 20% 0.00in /  0mm 18.0 W/m2
17:05 65.3 °F /  18.5 °C 23.2 °F /  -4.9 °C 30.33in /  1027hPa North 2.0mph /  3.2km/h 6.0mph /  9.7km/h 20% 0.00in /  0mm 14.0 W/m2
17:11 64.9 °F /  18.3 °C 24.1 °F /  -4.4 °C 30.33in /  1027hPa ENE 0.9mph /  1.4km/h 6.0mph /  9.7km/h 21% 0.00in /  0mm 12.0 W/m2
17:17 64.6 °F /  18.1 °C 23.7 °F /  -4.6 °C 30.33in /  1027hPa East 2.0mph /  3.2km/h 2.0mph /  3.2km/h 21% 0.00in /  0mm 9.0 W/m2
17:24 64.0 °F /  17.8 °C 23.4 °F /  -4.8 °C 30.33in /  1027hPa Calm     21% 0.00in /  0mm 5.0 W/m2
17:30 63.7 °F /  17.6 °C 24.1 °F /  -4.4 °C 30.33in /  1027hPa East 2.9mph /  4.7km/h 5.0mph /  8km/h 22% 0.00in /  0mm 0.0 W/m2
17:36 63.1 °F /  17.3 °C 23.7 °F /  -4.6 °C 30.33in /  1027hPa Calm     22% 0.00in /  0mm 0.0 W/m2
17:42 62.8 °F /  17.1 °C 23.4 °F /  -4.8 °C 30.34in /  1027.3hPa Calm   1.0mph /  1.6km/h 22% 0.00in /  0mm 0.0 W/m2
17:48 62.1 °F /  16.7 °C 23.9 °F /  -4.5 °C 30.34in /  1027.3hPa Calm     23% 0.00in /  0mm 0.0 W/m2
17:54 61.5 °F /  16.4 °C 23.4 °F /  -4.8 °C 30.34in /  1027.3hPa Calm   1.0mph /  1.6km/h 23% 0.00in /  0mm 0.0 W/m2
18:00 61.0 °F /  16.1 °C 22.8 °F /  -5.1 °C 30.34in /  1027.3hPa Calm     23% 0.00in /  0mm 0.0 W/m2
18:06 60.4 °F /  15.8 °C 23.5 °F /  -4.7 °C 30.35in /  1027.7hPa Calm     24% 0.00in /  0mm 0.0 W/m2
18:13 59.7 °F /  15.4 °C 22.8 °F /  -5.1 °C 30.35in /  1027.7hPa Calm     24% 0.00in /  0mm 0.0 W/m2
18:19 59.2 °F /  15.1 °C 23.4 °F /  -4.8 °C 30.35in /  1027.7hPa Calm     25% 0.00in /  0mm 0.0 W/m2
18:25 58.6 °F /  14.8 °C 22.8 °F /  -5.1 °C 30.36in /  1028hPa Calm     25% 0.00in /  0mm 0.0 W/m2
18:31 58.1 °F /  14.5 °C 22.5 °F /  -5.3 °C 30.35in /  1027.7hPa Calm     25% 0.00in /  0mm 0.0 W/m2
18:37 57.6 °F /  14.2 °C 23.0 °F /  -5 °C 30.36in /  1028hPa Calm     26% 0.00in /  0mm 0.0 W/m2
18:45 57.0 °F /  13.9 °C 22.5 °F /  -5.3 °C 30.36in /  1028hPa Calm     26% 0.00in /  0mm 0.0 W/m2
18:51 56.5 °F /  13.6 °C 22.8 °F /  -5.1 °C 30.36in /  1028hPa Calm     27% 0.00in /  0mm 0.0 W/m2
18:58 55.9 °F /  13.3 °C 22.5 °F /  -5.3 °C 30.36in /  1028hPa Calm     27% 0.00in /  0mm 0.0 W/m2
19:04 55.6 °F /  13.1 °C 23.0 °F /  -5 °C 30.36in /  1028hPa Calm   1.0mph /  1.6km/h 28% 0.00in /  0mm 0.0 W/m2
19:10 55.0 °F /  12.8 °C 22.5 °F /  -5.3 °C 30.36in /  1028hPa Calm     28% 0.00in /  0mm 0.0 W/m2
19:16 54.9 °F /  12.7 °C 22.3 °F /  -5.4 °C 30.36in /  1028hPa Calm     28% 0.00in /  0mm 0.0 W/m2
19:22 54.9 °F /  12.7 °C 23.2 °F /  -4.9 °C 30.36in /  1028hPa Calm   3.0mph /  4.8km/h 29% 0.00in /  0mm 0.0 W/m2
19:28 54.9 °F /  12.7 °C 22.3 °F /  -5.4 °C 30.36in /  1028hPa Calm   2.0mph /  3.2km/h 28% 0.00in /  0mm 0.0 W/m2
19:34 54.9 °F /  12.7 °C 22.3 °F /  -5.4 °C 30.36in /  1028hPa Calm   1.0mph /  1.6km/h 28% 0.00in /  0mm 0.0 W/m2
19:40 54.9 °F /  12.7 °C 22.3 °F /  -5.4 °C 30.36in /  1028hPa Calm     28% 0.00in /  0mm 0.0 W/m2
19:46 54.9 °F /  12.7 °C 22.3 °F /  -5.4 °C 30.36in /  1028hPa Calm     28% 0.00in /  0mm 0.0 W/m2
19:52 54.9 °F /  12.7 °C 22.3 °F /  -5.4 °C 30.36in /  1028hPa Calm   2.0mph /  3.2km/h 28% 0.00in /  0mm 0.0 W/m2
19:58 54.7 °F /  12.6 °C 23.0 °F /  -5 °C 30.36in /  1028hPa Calm     29% 0.00in /  0mm 0.0 W/m2
20:04 54.3 °F /  12.4 °C 22.6 °F /  -5.2 °C 30.36in /  1028hPa Calm   1.0mph /  1.6km/h 29% 0.00in /  0mm 0.0 W/m2
20:10 54.0 °F /  12.2 °C 22.5 °F /  -5.3 °C 30.36in /  1028hPa Calm   2.0mph /  3.2km/h 29% 0.00in /  0mm 0.0 W/m2
20:16 53.8 °F /  12.1 °C 22.3 °F /  -5.4 °C 30.36in /  1028hPa NE 0.9mph /  1.4km/h 1.0mph /  1.6km/h 29% 0.00in /  0mm 0.0 W/m2
20:22 53.2 °F /  11.8 °C 21.7 °F /  -5.7 °C 30.36in /  1028hPa East 0.9mph /  1.4km/h 2.0mph /  3.2km/h 29% 0.00in /  0mm 0.0 W/m2
20:28 53.1 °F /  11.7 °C 22.5 °F /  -5.3 °C 30.37in /  1028.3hPa Calm     30% 0.00in /  0mm 0.0 W/m2
20:34 52.9 °F /  11.6 °C 22.3 °F /  -5.4 °C 30.37in /  1028.3hPa Calm   1.0mph /  1.6km/h 30% 0.00in /  0mm 0.0 W/m2
20:40 52.7 °F /  11.5 °C 22.1 °F /  -5.5 °C 30.37in /  1028.3hPa Calm     30% 0.00in /  0mm 0.0 W/m2
20:47 52.5 °F /  11.4 °C 21.9 °F /  -5.6 °C 30.37in /  1028.3hPa Calm     30% 0.00in /  0mm 0.0 W/m2
20:52 52.3 °F /  11.3 °C 21.7 °F /  -5.7 °C 30.37in /  1028.3hPa Calm   2.0mph /  3.2km/h 30% 0.00in /  0mm 0.0 W/m2
20:58 52.3 °F /  11.3 °C 21.7 °F /  -5.7 °C 30.37in /  1028.3hPa Calm   1.0mph /  1.6km/h 30% 0.00in /  0mm 0.0 W/m2
21:04 52.2 °F /  11.2 °C 22.5 °F /  -5.3 °C 30.37in /  1028.3hPa Calm     31% 0.00in /  0mm 0.0 W/m2
21:10 52.0 °F /  11.1 °C 22.3 °F /  -5.4 °C 30.37in /  1028.3hPa Calm   3.0mph /  4.8km/h 31% 0.00in /  0mm 0.0 W/m2
21:16 51.8 °F /  11 °C 22.1 °F /  -5.5 °C 30.37in /  1028.3hPa Calm   1.0mph /  1.6km/h 31% 0.00in /  0mm 0.0 W/m2
21:22 51.4 °F /  10.8 °C 21.7 °F /  -5.7 °C 30.37in /  1028.3hPa Calm   1.0mph /  1.6km/h 31% 0.00in /  0mm 0.0 W/m2
21:29 51.3 °F /  10.7 °C 22.5 °F /  -5.3 °C 30.38in /  1028.7hPa Calm   1.0mph /  1.6km/h 32% 0.00in /  0mm 0.0 W/m2
21:35 51.1 °F /  10.6 °C 22.3 °F /  -5.4 °C 30.38in /  1028.7hPa Calm     32% 0.00in /  0mm 0.0 W/m2
21:41 50.7 °F /  10.4 °C 21.9 °F /  -5.6 °C 30.38in /  1028.7hPa Calm     32% 0.00in /  0mm 0.0 W/m2
21:47 50.5 °F /  10.3 °C 21.7 °F /  -5.7 °C 30.38in /  1028.7hPa Calm     32% 0.00in /  0mm 0.0 W/m2
21:53 50.4 °F /  10.2 °C 22.3 °F /  -5.4 °C 30.38in /  1028.7hPa Calm     33% 0.00in /  0mm 0.0 W/m2
21:59 50.2 °F /  10.1 °C 22.1 °F /  -5.5 °C 30.38in /  1028.7hPa Calm     33% 0.00in /  0mm 0.0 W/m2
22:05 49.8 °F /  9.9 °C 21.9 °F /  -5.6 °C 30.37in /  1028.3hPa Calm     33% 0.00in /  0mm 0.0 W/m2
22:11 49.8 °F /  9.9 °C 22.6 °F /  -5.2 °C 30.37in /  1028.3hPa Calm   3.0mph /  4.8km/h 34% 0.00in /  0mm 0.0 W/m2
22:17 49.6 °F /  9.8 °C 22.5 °F /  -5.3 °C 30.38in /  1028.7hPa East 0.9mph /  1.4km/h 1.0mph /  1.6km/h 34% 0.00in /  0mm 0.0 W/m2
22:23 49.6 °F /  9.8 °C 22.5 °F /  -5.3 °C 30.38in /  1028.7hPa Calm   3.0mph /  4.8km/h 34% 0.00in /  0mm 0.0 W/m2
22:29 49.6 °F /  9.8 °C 22.5 °F /  -5.3 °C 30.37in /  1028.3hPa Calm     34% 0.00in /  0mm 0.0 W/m2
22:35 49.5 °F /  9.7 °C 22.3 °F /  -5.4 °C 30.38in /  1028.7hPa Calm     34% 0.00in /  0mm 0.0 W/m2
22:41 49.3 °F /  9.6 °C 22.1 °F /  -5.5 °C 30.38in /  1028.7hPa Calm   2.0mph /  3.2km/h 34% 0.00in /  0mm 0.0 W/m2
22:47 49.3 °F /  9.6 °C 22.1 °F /  -5.5 °C 30.38in /  1028.7hPa Calm     34% 0.00in /  0mm 0.0 W/m2
22:53 49.3 °F /  9.6 °C 22.8 °F /  -5.1 °C 30.38in /  1028.7hPa Calm     35% 0.00in /  0mm 0.0 W/m2
22:59 48.9 °F /  9.4 °C 22.5 °F /  -5.3 °C 30.38in /  1028.7hPa Calm     35% 0.00in /  0mm 0.0 W/m2
23:05 48.7 °F /  9.3 °C 22.3 °F /  -5.4 °C 30.38in /  1028.7hPa Calm     35% 0.00in /  0mm 0.0 W/m2
23:11 48.6 °F /  9.2 °C 22.8 °F /  -5.1 °C 30.38in /  1028.7hPa Calm     36% 0.00in /  0mm 0.0 W/m2
23:17 48.6 °F /  9.2 °C 22.8 °F /  -5.1 °C 30.39in /  1029hPa Calm     36% 0.00in /  0mm 0.0 W/m2
23:23 48.2 °F /  9 °C 23.2 °F /  -4.9 °C 30.39in /  1029hPa Calm     37% 0.00in /  0mm 0.0 W/m2
23:29 47.8 °F /  8.8 °C 23.5 °F /  -4.7 °C 30.39in /  1029hPa Calm     38% 0.00in /  0mm 0.0 W/m2
23:35 47.7 °F /  8.7 °C 23.4 °F /  -4.8 °C 30.39in /  1029hPa Calm     38% 0.00in /  0mm 0.0 W/m2
23:41 47.5 °F /  8.6 °C 23.7 °F /  -4.6 °C 30.39in /  1029hPa Calm     39% 0.00in /  0mm 0.0 W/m2
23:47 47.1 °F /  8.4 °C 24.1 °F /  -4.4 °C 30.39in /  1029hPa Calm     40% 0.00in /  0mm 0.0 W/m2
23:54 46.9 °F /  8.3 °C 24.4 °F /  -4.2 °C 30.39in /  1029hPa Calm     41% 0.00in /  0mm 0.0 W/m2
Olympia, Windhoek, Namibia
Compliments of Weather Underground - 3 mb